createdAt,value
2023-04-09T00:00:31.205Z,1016.66
2023-04-09T00:01:31.205Z,1016.67
2023-04-09T00:02:31.170Z,1016.67
2023-04-09T00:03:31.133Z,1016.66
2023-04-09T00:04:31.101Z,1016.69
2023-04-09T00:05:31.021Z,1016.64
2023-04-09T00:06:30.973Z,1016.67
2023-04-09T00:07:30.942Z,1016.65
2023-04-09T00:08:30.911Z,1016.64
2023-04-09T00:09:30.877Z,1016.64
2023-04-09T00:10:30.847Z,1016.66
2023-04-09T00:11:30.800Z,1016.64
2023-04-09T00:12:30.758Z,1016.66
2023-04-09T00:14:30.683Z,1016.67
2023-04-09T00:15:31.922Z,1016.64
2023-04-09T00:16:30.640Z,1016.71
2023-04-09T00:17:30.582Z,1016.69
2023-04-09T00:18:30.529Z,1016.66
2023-04-09T00:19:30.493Z,1016.66
2023-04-09T00:20:30.510Z,1016.66
2023-04-09T00:21:30.423Z,1016.66
2023-04-09T00:22:30.380Z,1016.65
2023-04-09T00:23:30.348Z,1016.64
2023-04-09T00:24:30.307Z,1016.62
2023-04-09T00:25:30.274Z,1016.59
2023-04-09T00:26:30.236Z,1016.58
2023-04-09T00:27:30.203Z,1016.55
2023-04-09T00:28:30.160Z,1016.57
2023-04-09T00:29:30.117Z,1016.53
2023-04-09T00:30:30.100Z,1016.56
2023-04-09T00:31:30.055Z,1016.52
2023-04-09T00:32:30.041Z,1016.56
2023-04-09T00:33:29.969Z,1016.53
2023-04-09T00:34:29.933Z,1016.57
2023-04-09T00:35:29.893Z,1016.51
2023-04-09T00:36:29.853Z,1016.54
2023-04-09T00:37:29.819Z,1016.55
2023-04-09T00:38:29.782Z,1016.56
2023-04-09T00:39:29.740Z,1016.55
2023-04-09T00:40:29.713Z,1016.57
2023-04-09T00:41:29.665Z,1016.57
2023-04-09T00:42:29.634Z,1016.53
2023-04-09T00:43:29.621Z,1016.61
2023-04-09T00:44:29.554Z,1016.58
2023-04-09T00:45:29.614Z,1016.58
2023-04-09T00:46:29.483Z,1016.58
2023-04-09T00:47:29.502Z,1016.58
2023-04-09T00:48:29.416Z,1016.58
2023-04-09T00:49:29.365Z,1016.54
2023-04-09T00:50:29.331Z,1016.59
2023-04-09T00:51:29.292Z,1016.54
2023-04-09T00:52:29.270Z,1016.56
2023-04-09T00:53:29.218Z,1016.56
2023-04-09T00:54:29.192Z,1016.55
2023-04-09T00:55:29.137Z,1016.54
2023-04-09T00:56:29.109Z,1016.56
2023-04-09T00:57:29.065Z,1016.55
2023-04-09T00:58:29.030Z,1016.56
2023-04-09T00:59:28.993Z,1016.53
2023-04-09T01:00:28.954Z,1016.52
2023-04-09T01:01:29.048Z,1016.50
2023-04-09T01:02:29.051Z,1016.50
2023-04-09T01:03:28.960Z,1016.50
2023-04-09T01:04:28.798Z,1016.48
2023-04-09T01:05:28.768Z,1016.51
2023-04-09T01:06:28.726Z,1016.54
2023-04-09T01:07:28.682Z,1016.54
2023-04-09T01:08:28.649Z,1016.51
2023-04-09T01:09:28.634Z,1016.52
2023-04-09T01:10:28.618Z,1016.51
2023-04-09T01:11:28.542Z,1016.51
2023-04-09T01:12:28.502Z,1016.49
2023-04-09T01:13:28.485Z,1016.50
2023-04-09T01:14:28.426Z,1016.49
2023-04-09T01:15:28.395Z,1016.48
2023-04-09T01:16:28.433Z,1016.49
2023-04-09T01:17:28.339Z,1016.50
2023-04-09T01:18:28.293Z,1016.46
2023-04-09T01:19:28.228Z,1016.47
2023-04-09T01:20:28.194Z,1016.45
2023-04-09T01:21:28.150Z,1016.42
2023-04-09T01:22:28.115Z,1016.46
2023-04-09T01:23:28.078Z,1016.41
2023-04-09T01:24:28.043Z,1016.45
2023-04-09T01:25:28.001Z,1016.48
2023-04-09T01:26:27.969Z,1016.44
2023-04-09T01:27:27.926Z,1016.44
2023-04-09T01:28:27.901Z,1016.43
2023-04-09T01:29:27.852Z,1016.43
2023-04-09T01:30:27.838Z,1016.44
2023-04-09T01:31:27.795Z,1016.42
2023-04-09T01:32:27.757Z,1016.42
2023-04-09T01:33:27.704Z,1016.43
2023-04-09T01:34:27.701Z,1016.41
2023-04-09T01:35:27.627Z,1016.42
2023-04-09T01:36:27.584Z,1016.42
2023-04-09T01:37:27.553Z,1016.45
2023-04-09T01:38:27.508Z,1016.42
2023-04-09T01:39:27.492Z,1016.43
2023-04-09T01:40:27.455Z,1016.42
2023-04-09T01:41:27.397Z,1016.44
2023-04-09T01:42:27.366Z,1016.43
2023-04-09T01:43:27.353Z,1016.43
2023-04-09T01:44:27.306Z,1016.42
2023-04-09T01:45:27.288Z,1016.41
2023-04-09T01:46:27.288Z,1016.42
2023-04-09T01:47:27.242Z,1016.39
2023-04-09T01:48:27.140Z,1016.36
2023-04-09T01:49:27.094Z,1016.38
2023-04-09T01:50:27.061Z,1016.35
2023-04-09T01:51:27.018Z,1016.37
2023-04-09T01:52:26.997Z,1016.39
2023-04-09T01:53:26.946Z,1016.38
2023-04-09T01:54:26.928Z,1016.37
2023-04-09T01:55:26.914Z,1016.41
2023-04-09T01:56:26.843Z,1016.37
2023-04-09T01:57:26.800Z,1016.39
2023-04-09T01:58:26.759Z,1016.45
2023-04-09T01:59:26.719Z,1016.46
2023-04-09T02:00:26.706Z,1016.42
2023-04-09T02:01:26.683Z,1016.43
2023-04-09T02:02:26.661Z,1016.44
2023-04-09T02:03:26.708Z,1016.41
2023-04-09T02:04:26.533Z,1016.42
2023-04-09T02:05:26.516Z,1016.42
2023-04-09T02:06:26.463Z,1016.42
2023-04-09T02:07:26.429Z,1016.41
2023-04-09T02:08:26.395Z,1016.40
2023-04-09T02:09:26.346Z,1016.41
2023-04-09T02:10:26.303Z,1016.39
2023-04-09T02:11:26.277Z,1016.41
2023-04-09T02:12:26.240Z,1016.41
2023-04-09T02:13:26.194Z,1016.40
2023-04-09T02:14:26.156Z,1016.39
2023-04-09T02:15:26.119Z,1016.40
2023-04-09T02:16:26.104Z,1016.40
2023-04-09T02:17:26.081Z,1016.40
2023-04-09T02:18:26.011Z,1016.40
2023-04-09T02:19:25.982Z,1016.40
2023-04-09T02:20:25.934Z,1016.38
2023-04-09T02:21:25.917Z,1016.39
2023-04-09T02:22:25.856Z,1016.36
2023-04-09T02:23:25.818Z,1016.34
2023-04-09T02:24:25.782Z,1016.38
2023-04-09T02:25:25.745Z,1016.35
2023-04-09T02:26:25.702Z,1016.35
2023-04-09T02:27:25.667Z,1016.32
2023-04-09T02:28:25.635Z,1016.33
2023-04-09T02:29:25.592Z,1016.31
2023-04-09T02:30:25.555Z,1016.30
2023-04-09T02:31:25.551Z,1016.30
2023-04-09T02:32:25.502Z,1016.29
2023-04-09T02:33:25.442Z,1016.30
2023-04-09T02:34:25.402Z,1016.29
2023-04-09T02:35:25.379Z,1016.32
2023-04-09T02:36:25.342Z,1016.27
2023-04-09T02:37:25.299Z,1016.29
2023-04-09T02:38:25.270Z,1016.29
2023-04-09T02:39:25.232Z,1016.29
2023-04-09T02:40:25.178Z,1016.27
2023-04-09T02:41:25.145Z,1016.26
2023-04-09T02:42:25.131Z,1016.28
2023-04-09T02:43:25.066Z,1016.30
2023-04-09T02:44:25.034Z,1016.26
2023-04-09T02:45:24.980Z,1016.25
2023-04-09T02:46:25.026Z,1016.25
2023-04-09T02:47:24.943Z,1016.22
2023-04-09T02:48:24.883Z,1016.18
2023-04-09T02:49:24.840Z,1016.16
2023-04-09T02:50:24.814Z,1016.14
2023-04-09T02:51:24.765Z,1016.14
2023-04-09T02:52:24.721Z,1016.14
2023-04-09T02:53:24.681Z,1016.11
2023-04-09T02:54:24.650Z,1016.15
2023-04-09T02:55:24.607Z,1016.12
2023-04-09T02:56:24.580Z,1016.13
2023-04-09T02:57:24.545Z,1016.15
2023-04-09T02:58:24.497Z,1016.17
2023-04-09T02:59:24.455Z,1016.10
2023-04-09T03:00:24.416Z,1016.15
2023-04-09T03:01:24.415Z,1016.11
2023-04-09T03:02:24.440Z,1016.10
2023-04-09T03:03:24.421Z,1016.10
2023-04-09T03:04:24.414Z,1016.09
2023-04-09T03:05:24.231Z,1016.11
2023-04-09T03:06:24.191Z,1016.12
2023-04-09T03:07:24.154Z,1016.12
2023-04-09T03:08:24.121Z,1016.13
2023-04-09T03:09:24.079Z,1016.10
2023-04-09T03:10:24.070Z,1016.10
2023-04-09T03:11:24.011Z,1016.11
2023-04-09T03:12:23.958Z,1016.06
2023-04-09T03:13:23.924Z,1016.08
2023-04-09T03:14:23.928Z,1016.06
2023-04-09T03:15:23.922Z,1016.07
2023-04-09T03:16:23.842Z,1016.06
2023-04-09T03:17:23.787Z,1016.06
2023-04-09T03:18:23.745Z,1016.09
2023-04-09T03:19:23.697Z,1016.03
2023-04-09T03:20:23.660Z,1016.04
2023-04-09T03:21:23.624Z,1016.04
2023-04-09T03:22:23.585Z,1016.04
2023-04-09T03:23:23.550Z,1016.04
2023-04-09T03:24:23.512Z,1016.02
2023-04-09T03:25:23.493Z,1016.01
2023-04-09T03:26:23.432Z,1016.02
2023-04-09T03:27:23.393Z,1016.02
2023-04-09T03:28:23.357Z,1016.01
2023-04-09T03:29:23.324Z,1016.01
2023-04-09T03:30:23.297Z,1016.02
2023-04-09T03:31:23.302Z,1015.99
2023-04-09T03:32:23.263Z,1015.99
2023-04-09T03:33:23.163Z,1015.99
2023-04-09T03:34:23.121Z,1015.99
2023-04-09T03:35:23.089Z,1015.97
2023-04-09T03:36:23.051Z,1015.97
2023-04-09T03:37:23.010Z,1015.98
2023-04-09T03:38:22.976Z,1015.98
2023-04-09T03:39:22.936Z,1015.97
2023-04-09T03:40:22.904Z,1015.99
2023-04-09T03:41:22.857Z,1016.02
2023-04-09T03:42:22.821Z,1016.00
2023-04-09T03:43:22.785Z,1016.02
2023-04-09T03:44:22.741Z,1016.01
2023-04-09T03:45:22.706Z,1016.00
2023-04-09T03:46:22.712Z,1016.00
2023-04-09T03:47:22.703Z,1015.99
2023-04-09T03:48:22.606Z,1015.98
2023-04-09T03:49:22.578Z,1015.99
2023-04-09T03:50:22.513Z,1015.95
2023-04-09T03:51:22.475Z,1015.97
2023-04-09T03:52:22.431Z,1015.93
2023-04-09T03:53:22.390Z,1015.94
2023-04-09T03:54:22.361Z,1015.95
2023-04-09T03:55:22.323Z,1015.93
2023-04-09T03:56:22.287Z,1015.93
2023-04-09T03:57:22.289Z,1015.91
2023-04-09T03:58:22.203Z,1015.92
2023-04-09T03:59:22.158Z,1015.91
2023-04-09T04:00:22.125Z,1015.92
2023-04-09T04:01:22.106Z,1015.92
2023-04-09T04:02:22.167Z,1015.87
2023-04-09T04:03:22.161Z,1015.90
2023-04-09T04:04:23.736Z,1015.90
2023-04-09T04:05:21.975Z,1015.85
2023-04-09T04:06:21.889Z,1015.84
2023-04-09T04:07:21.890Z,1015.88
2023-04-09T04:08:21.821Z,1015.86
2023-04-09T04:09:21.777Z,1015.87
2023-04-09T04:10:21.751Z,1015.87
2023-04-09T04:11:21.728Z,1015.88
2023-04-09T04:12:21.665Z,1015.86
2023-04-09T04:13:21.653Z,1015.86
2023-04-09T04:14:21.594Z,1015.88
2023-04-09T04:15:21.548Z,1015.86
2023-04-09T04:16:21.529Z,1015.85
2023-04-09T04:17:21.495Z,1015.90
2023-04-09T04:18:21.436Z,1015.87
2023-04-09T04:19:21.393Z,1015.87
2023-04-09T04:20:21.358Z,1015.87
2023-04-09T04:21:21.317Z,1015.85
2023-04-09T04:22:21.277Z,1015.90
2023-04-09T04:23:21.250Z,1015.89
2023-04-09T04:24:21.202Z,1015.93
2023-04-09T04:25:21.168Z,1015.91
2023-04-09T04:26:21.133Z,1015.88
2023-04-09T04:27:21.089Z,1015.91
2023-04-09T04:28:21.048Z,1015.89
2023-04-09T04:29:21.012Z,1015.89
2023-04-09T04:30:21.003Z,1015.91
2023-04-09T04:31:21.093Z,1015.91
2023-04-09T04:32:20.896Z,1015.91
2023-04-09T04:33:20.855Z,1015.92
2023-04-09T04:34:20.823Z,1015.92
2023-04-09T04:35:20.882Z,1015.95
2023-04-09T04:36:20.737Z,1015.94
2023-04-09T04:37:20.704Z,1015.96
2023-04-09T04:38:20.685Z,1015.90
2023-04-09T04:39:20.624Z,1015.93
2023-04-09T04:40:20.587Z,1015.94
2023-04-09T04:41:20.544Z,1015.95
2023-04-09T04:42:20.506Z,1016.00
2023-04-09T04:43:20.477Z,1015.97
2023-04-09T04:44:20.432Z,1015.98
2023-04-09T04:45:20.396Z,1016.03
2023-04-09T04:46:20.413Z,1016.02
2023-04-09T04:47:20.323Z,1015.99
2023-04-09T04:48:20.275Z,1016.01
2023-04-09T04:49:20.237Z,1015.99
2023-04-09T04:50:20.203Z,1016.02
2023-04-09T04:51:20.169Z,1016.01
2023-04-09T04:52:20.117Z,1016.05
2023-04-09T04:53:20.145Z,1016.01
2023-04-09T04:54:20.041Z,1016.01
2023-04-09T04:55:20.000Z,1016.02
2023-04-09T04:56:19.963Z,1016.02
2023-04-09T04:57:19.921Z,1015.97
2023-04-09T04:58:19.885Z,1015.95
2023-04-09T04:59:19.853Z,1015.97
2023-04-09T05:00:19.804Z,1015.99
2023-04-09T05:01:19.791Z,1015.96
2023-04-09T05:02:19.961Z,1016.05
2023-04-09T05:03:19.757Z,1016.04
2023-04-09T05:04:19.655Z,1016.06
2023-04-09T05:05:19.615Z,1016.07
2023-04-09T05:06:19.571Z,1016.02
2023-04-09T05:07:19.540Z,1016.07
2023-04-09T05:08:19.500Z,1016.05
2023-04-09T05:09:21.859Z,1016.01
2023-04-09T05:10:19.423Z,1016.03
2023-04-09T05:11:19.380Z,1016.04
2023-04-09T05:12:19.340Z,1016.02
2023-04-09T05:13:19.301Z,1015.98
2023-04-09T05:14:19.267Z,1015.99
2023-04-09T05:15:19.239Z,1016.03
2023-04-09T05:16:19.244Z,1016.03
2023-04-09T05:17:19.768Z,1016.05
2023-04-09T05:18:19.106Z,1016.02
2023-04-09T05:19:19.065Z,1016.04
2023-04-09T05:20:19.027Z,1016.03
2023-04-09T05:21:19.013Z,1016.05
2023-04-09T05:22:18.955Z,1016.06
2023-04-09T05:23:18.916Z,1016.04
2023-04-09T05:24:18.873Z,1016.02
2023-04-09T05:25:18.832Z,1016.09
2023-04-09T05:26:18.791Z,1016.06
2023-04-09T05:27:18.756Z,1016.03
2023-04-09T05:28:18.719Z,1016.03
2023-04-09T05:29:18.679Z,1015.99
2023-04-09T05:30:18.639Z,1016.02
2023-04-09T05:31:18.621Z,1016.03
2023-04-09T05:32:18.610Z,1016.03
2023-04-09T05:33:18.520Z,1016.04
2023-04-09T05:34:18.482Z,1016.07
2023-04-09T05:35:18.443Z,1016.07
2023-04-09T05:36:18.410Z,1016.11
2023-04-09T05:37:18.366Z,1016.10
2023-04-09T05:38:18.329Z,1016.09
2023-04-09T05:39:18.294Z,1016.11
2023-04-09T05:40:18.251Z,1016.12
2023-04-09T05:41:18.219Z,1016.08
2023-04-09T05:42:18.173Z,1016.09
2023-04-09T05:43:18.160Z,1016.05
2023-04-09T05:44:18.094Z,1016.07
2023-04-09T05:45:18.057Z,1016.05
2023-04-09T05:46:18.069Z,1016.07
2023-04-09T05:47:17.987Z,1016.08
2023-04-09T05:48:17.945Z,1016.05
2023-04-09T05:49:17.902Z,1016.05
2023-04-09T05:50:17.874Z,1015.99
2023-04-09T05:51:17.842Z,1015.98
2023-04-09T05:52:17.825Z,1015.99
2023-04-09T05:53:17.749Z,1015.99
2023-04-09T05:54:17.708Z,1015.99
2023-04-09T05:55:17.669Z,1015.98
2023-04-09T05:56:17.640Z,1015.99
2023-04-09T05:57:17.594Z,1015.97
2023-04-09T05:58:17.565Z,1015.99
2023-04-09T05:59:17.517Z,1015.99
2023-04-09T06:00:17.483Z,1015.99
2023-04-09T06:01:17.440Z,1015.98
2023-04-09T06:02:17.545Z,1015.99
2023-04-09T06:03:17.483Z,1016.01
2023-04-09T06:04:17.483Z,1016.02
2023-04-09T06:05:17.295Z,1016.04
2023-04-09T06:06:17.244Z,1016.04
2023-04-09T06:07:17.206Z,1016.02
2023-04-09T06:08:17.171Z,1016.01
2023-04-09T06:09:17.189Z,1016.04
2023-04-09T06:10:17.085Z,1016.02
2023-04-09T06:11:17.053Z,1015.99
2023-04-09T06:12:17.010Z,1016.02
2023-04-09T06:13:16.982Z,1016.01
2023-04-09T06:14:16.947Z,1015.98
2023-04-09T06:15:16.899Z,1015.98
2023-04-09T06:16:16.952Z,1016.01
2023-04-09T06:17:16.817Z,1015.99
2023-04-09T06:18:16.776Z,1015.97
2023-04-09T06:19:16.782Z,1016.03
2023-04-09T06:20:16.701Z,1016.02
2023-04-09T06:21:16.676Z,1016.04
2023-04-09T06:22:16.624Z,1016.05
2023-04-09T06:23:16.593Z,1016.01
2023-04-09T06:24:16.561Z,1016.06
2023-04-09T06:25:16.512Z,1016.03
2023-04-09T06:26:16.477Z,1016.05
2023-04-09T06:27:16.438Z,1016.06
2023-04-09T06:28:16.400Z,1016.07
2023-04-09T06:29:16.372Z,1016.05
2023-04-09T06:30:16.318Z,1016.07
2023-04-09T06:31:16.305Z,1016.08
2023-04-09T06:32:16.249Z,1016.12
2023-04-09T06:33:16.290Z,1016.13
2023-04-09T06:34:16.159Z,1016.14
2023-04-09T06:35:16.141Z,1016.17
2023-04-09T06:36:16.138Z,1016.19
2023-04-09T06:37:16.045Z,1016.17
2023-04-09T06:38:16.007Z,1016.20
2023-04-09T06:39:15.974Z,1016.18
2023-04-09T06:40:15.940Z,1016.21
2023-04-09T06:41:15.894Z,1016.19
2023-04-09T06:42:15.854Z,1016.27
2023-04-09T06:43:15.827Z,1016.22
2023-04-09T06:44:15.780Z,1016.28
2023-04-09T06:45:15.736Z,1016.29
2023-04-09T06:46:15.714Z,1016.27
2023-04-09T06:47:15.660Z,1016.28
2023-04-09T06:48:15.638Z,1016.31
2023-04-09T06:49:15.583Z,1016.29
2023-04-09T06:50:15.556Z,1016.27
2023-04-09T06:51:15.546Z,1016.25
2023-04-09T06:52:15.472Z,1016.29
2023-04-09T06:53:15.452Z,1016.31
2023-04-09T06:54:15.394Z,1016.33
2023-04-09T06:55:15.574Z,1016.34
2023-04-09T06:56:15.317Z,1016.36
2023-04-09T06:57:15.283Z,1016.35
2023-04-09T06:58:15.241Z,1016.33
2023-04-09T06:59:15.203Z,1016.35
2023-04-09T07:00:15.211Z,1016.32
2023-04-09T07:01:15.175Z,1016.31
2023-04-09T07:02:15.228Z,1016.31
2023-04-09T07:03:15.145Z,1016.32
2023-04-09T07:04:15.067Z,1016.31
2023-04-09T07:05:14.973Z,1016.29
2023-04-09T07:06:14.934Z,1016.38
2023-04-09T07:07:14.908Z,1016.30
2023-04-09T07:08:15.019Z,1016.35
2023-04-09T07:09:14.832Z,1016.35
2023-04-09T07:10:14.787Z,1016.35
2023-04-09T07:11:14.753Z,1016.32
2023-04-09T07:12:14.745Z,1016.30
2023-04-09T07:13:14.669Z,1016.34
2023-04-09T07:14:14.640Z,1016.36
2023-04-09T07:15:14.593Z,1016.34
2023-04-09T07:16:14.586Z,1016.36
2023-04-09T07:17:14.523Z,1016.36
2023-04-09T07:18:14.497Z,1016.36
2023-04-09T07:19:14.462Z,1016.39
2023-04-09T07:20:14.412Z,1016.36
2023-04-09T07:21:14.399Z,1016.41
2023-04-09T07:22:14.327Z,1016.37
2023-04-09T07:23:14.292Z,1016.41
2023-04-09T07:24:14.254Z,1016.38
2023-04-09T07:25:14.259Z,1016.39
2023-04-09T07:26:14.173Z,1016.38
2023-04-09T07:27:14.138Z,1016.40
2023-04-09T07:28:14.102Z,1016.42
2023-04-09T07:29:14.076Z,1016.41
2023-04-09T07:30:14.046Z,1016.38
2023-04-09T07:31:14.020Z,1016.40
2023-04-09T07:32:13.952Z,1016.43
2023-04-09T07:33:13.991Z,1016.43
2023-04-09T07:34:13.959Z,1016.45
2023-04-09T07:35:13.836Z,1016.43
2023-04-09T07:36:13.859Z,1016.44
2023-04-09T07:37:13.812Z,1016.47
2023-04-09T07:38:13.728Z,1016.51
2023-04-09T07:39:13.693Z,1016.48
2023-04-09T07:40:13.653Z,1016.50
2023-04-09T07:41:13.623Z,1016.48
2023-04-09T07:42:13.573Z,1016.53
2023-04-09T07:43:13.536Z,1016.51
2023-04-09T07:44:13.499Z,1016.55
2023-04-09T07:45:13.467Z,1016.54
2023-04-09T07:46:13.458Z,1016.58
2023-04-09T07:47:13.391Z,1016.58
2023-04-09T07:48:13.347Z,1016.57
2023-04-09T07:49:13.317Z,1016.58
2023-04-09T07:50:13.276Z,1016.61
2023-04-09T07:51:13.259Z,1016.60
2023-04-09T07:52:13.198Z,1016.62
2023-04-09T07:53:13.180Z,1016.63
2023-04-09T07:54:13.164Z,1016.62
2023-04-09T07:55:13.092Z,1016.62
2023-04-09T07:56:13.058Z,1016.61
2023-04-09T07:57:13.025Z,1016.66
2023-04-09T07:58:12.986Z,1016.59
2023-04-09T07:59:12.943Z,1016.62
2023-04-09T08:00:12.923Z,1016.62
2023-04-09T08:01:12.862Z,1016.59
2023-04-09T08:02:15.052Z,1016.61
2023-04-09T08:03:12.973Z,1016.63
2023-04-09T08:04:13.069Z,1016.61
2023-04-09T08:05:12.811Z,1016.63
2023-04-09T08:06:12.695Z,1016.60
2023-04-09T08:07:12.647Z,1016.64
2023-04-09T08:08:12.618Z,1016.64
2023-04-09T08:09:12.571Z,1016.61
2023-04-09T08:10:12.538Z,1016.62
2023-04-09T08:11:12.508Z,1016.61
2023-04-09T08:12:12.459Z,1016.66
2023-04-09T08:13:12.422Z,1016.64
2023-04-09T08:14:12.389Z,1016.66
2023-04-09T08:15:12.355Z,1016.65
2023-04-09T08:16:12.343Z,1016.67
2023-04-09T08:17:12.276Z,1016.69
2023-04-09T08:18:12.247Z,1016.68
2023-04-09T08:19:12.213Z,1016.69
2023-04-09T08:20:12.174Z,1016.68
2023-04-09T08:21:12.137Z,1016.69
2023-04-09T08:22:12.181Z,1016.66
2023-04-09T08:23:12.091Z,1016.69
2023-04-09T08:24:12.148Z,1016.59
2023-04-09T08:25:11.999Z,1016.61
2023-04-09T08:26:11.978Z,1016.62
2023-04-09T08:27:11.936Z,1016.65
2023-04-09T08:28:11.895Z,1016.61
2023-04-09T08:29:11.861Z,1016.61
2023-04-09T08:30:11.833Z,1016.60
2023-04-09T08:31:11.781Z,1016.62
2023-04-09T08:32:11.847Z,1016.62
2023-04-09T08:33:11.698Z,1016.58
2023-04-09T08:34:11.653Z,1016.62
2023-04-09T08:35:11.629Z,1016.61
2023-04-09T08:36:11.663Z,1016.60
2023-04-09T08:37:11.556Z,1016.57
2023-04-09T08:38:11.537Z,1016.65
2023-04-09T08:39:11.475Z,1016.62
2023-04-09T08:40:11.460Z,1016.63
2023-04-09T08:41:12.547Z,1016.63
2023-04-09T08:42:11.361Z,1016.64
2023-04-09T08:43:11.334Z,1016.64
2023-04-09T08:44:11.315Z,1016.68
2023-04-09T08:45:11.253Z,1016.64
2023-04-09T08:46:11.259Z,1016.63
2023-04-09T08:47:11.192Z,1016.61
2023-04-09T08:48:11.323Z,1016.60
2023-04-09T08:49:11.132Z,1016.64
2023-04-09T08:50:11.078Z,1016.65
2023-04-09T08:51:11.048Z,1016.62
2023-04-09T08:52:11.002Z,1016.58
2023-04-09T08:53:10.980Z,1016.57
2023-04-09T08:54:10.926Z,1016.54
2023-04-09T08:55:10.916Z,1016.55
2023-04-09T08:56:10.886Z,1016.53
2023-04-09T08:57:10.907Z,1016.53
2023-04-09T08:58:10.791Z,1016.52
2023-04-09T08:59:10.774Z,1016.55
2023-04-09T09:00:10.721Z,1016.53
2023-04-09T09:01:11.828Z,1016.53
2023-04-09T09:02:10.788Z,1016.53
2023-04-09T09:03:10.764Z,1016.50
2023-04-09T09:04:10.618Z,1016.50
2023-04-09T09:05:10.531Z,1016.52
2023-04-09T09:06:10.508Z,1016.49
2023-04-09T09:07:10.482Z,1016.43
2023-04-09T09:08:10.433Z,1016.45
2023-04-09T09:09:10.403Z,1016.45
2023-04-09T09:10:10.354Z,1016.45
2023-04-09T09:11:10.325Z,1016.41
2023-04-09T09:12:10.280Z,1016.45
2023-04-09T09:13:10.274Z,1016.47
2023-04-09T09:14:10.217Z,1016.49
2023-04-09T09:15:10.202Z,1016.43
2023-04-09T09:16:10.167Z,1016.46
2023-04-09T09:17:10.205Z,1016.46
2023-04-09T09:18:10.066Z,1016.43
2023-04-09T09:19:10.024Z,1016.40
2023-04-09T09:20:10.051Z,1016.41
2023-04-09T09:21:09.951Z,1016.33
2023-04-09T09:22:09.926Z,1016.37
2023-04-09T09:23:09.905Z,1016.37
2023-04-09T09:24:09.871Z,1016.33
2023-04-09T09:25:09.846Z,1016.32
2023-04-09T09:26:09.792Z,1016.30
2023-04-09T09:27:09.818Z,1016.30
2023-04-09T09:28:09.735Z,1016.27
2023-04-09T09:29:09.691Z,1016.26
2023-04-09T09:30:09.636Z,1016.28
2023-04-09T09:31:09.642Z,1016.27
2023-04-09T09:32:09.562Z,1016.22
2023-04-09T09:33:09.538Z,1016.26
2023-04-09T09:34:09.501Z,1016.24
2023-04-09T09:35:09.466Z,1016.23
2023-04-09T09:36:09.486Z,1016.27
2023-04-09T09:37:09.390Z,1016.23
2023-04-09T09:38:09.352Z,1016.18
2023-04-09T09:39:09.341Z,1016.18
2023-04-09T09:40:09.296Z,1016.22
2023-04-09T09:41:09.248Z,1016.21
2023-04-09T09:42:09.311Z,1016.22
2023-04-09T09:43:09.182Z,1016.20
2023-04-09T09:44:09.164Z,1016.18
2023-04-09T09:45:09.106Z,1016.20
2023-04-09T09:46:09.126Z,1016.16
2023-04-09T09:47:09.047Z,1016.13
2023-04-09T09:48:09.041Z,1016.10
2023-04-09T09:49:08.976Z,1016.12
2023-04-09T09:50:08.935Z,1016.14
2023-04-09T09:51:08.897Z,1016.11
2023-04-09T09:52:08.890Z,1016.15
2023-04-09T09:53:08.833Z,1016.16
2023-04-09T09:54:08.799Z,1016.18
2023-04-09T09:55:08.756Z,1016.11
2023-04-09T09:56:08.723Z,1016.12
2023-04-09T09:57:08.688Z,1016.10
2023-04-09T09:58:08.675Z,1016.17
2023-04-09T09:59:08.618Z,1016.16
2023-04-09T10:00:08.600Z,1016.11
2023-04-09T10:01:08.562Z,1016.05
2023-04-09T10:02:08.594Z,1016.14
2023-04-09T10:03:08.618Z,1016.17
2023-04-09T10:04:08.560Z,1016.12
2023-04-09T10:05:08.409Z,1016.07
2023-04-09T10:06:08.382Z,1016.04
2023-04-09T10:07:08.368Z,1016.11
2023-04-09T10:08:08.321Z,1016.09
2023-04-09T10:09:08.268Z,1016.15
2023-04-09T10:10:08.241Z,1016.11
2023-04-09T10:11:08.198Z,1016.10
2023-04-09T10:12:08.163Z,1016.10
2023-04-09T10:13:08.136Z,1016.11
2023-04-09T10:14:08.107Z,1016.11
2023-04-09T10:15:08.063Z,1016.12
2023-04-09T10:16:08.120Z,1016.19
2023-04-09T10:17:07.994Z,1016.15
2023-04-09T10:18:07.962Z,1016.15
2023-04-09T10:19:07.960Z,1016.13
2023-04-09T10:20:07.910Z,1016.09
2023-04-09T10:21:07.863Z,1016.11
2023-04-09T10:22:07.832Z,1016.11
2023-04-09T10:23:07.804Z,1016.13
2023-04-09T10:24:07.771Z,1016.14
2023-04-09T10:25:07.742Z,1016.14
2023-04-09T10:26:07.700Z,1016.14
2023-04-09T10:27:07.671Z,1016.09
2023-04-09T10:28:07.630Z,1016.13
2023-04-09T10:29:07.591Z,1016.14
2023-04-09T10:30:07.560Z,1016.12
2023-04-09T10:31:07.846Z,1016.14
2023-04-09T10:32:07.492Z,1016.17
2023-04-09T10:33:07.597Z,1016.12
2023-04-09T10:34:09.472Z,1016.08
2023-04-09T10:35:07.386Z,1016.02
2023-04-09T10:36:07.390Z,1016.05
2023-04-09T10:37:07.320Z,1016.03
2023-04-09T10:38:07.284Z,1016.03
2023-04-09T10:39:07.248Z,1016.06
2023-04-09T10:40:08.923Z,1016.03
2023-04-09T10:41:07.188Z,1016.04
2023-04-09T10:42:07.149Z,1015.99
2023-04-09T10:43:07.127Z,1016.05
2023-04-09T10:44:07.094Z,1015.98
2023-04-09T10:45:07.056Z,1016.01
2023-04-09T10:46:07.063Z,1016.03
2023-04-09T10:47:06.987Z,1016.03
2023-04-09T10:48:07.006Z,1016.06
2023-04-09T10:49:06.929Z,1016.05
2023-04-09T10:50:06.888Z,1016.04
2023-04-09T10:51:06.855Z,1015.99
2023-04-09T10:52:07.994Z,1016.02
2023-04-09T10:53:06.786Z,1015.99
2023-04-09T10:54:06.758Z,1015.99
2023-04-09T10:55:06.724Z,1015.95
2023-04-09T10:56:06.687Z,1015.94
2023-04-09T10:57:06.660Z,1015.94
2023-04-09T10:58:07.192Z,1015.96
2023-04-09T10:59:06.594Z,1015.91
2023-04-09T11:00:06.567Z,1015.95
2023-04-09T11:01:06.531Z,1015.96
2023-04-09T11:02:06.599Z,1015.98
2023-04-09T11:03:06.596Z,1015.98
2023-04-09T11:04:06.760Z,1015.96
2023-04-09T11:05:06.480Z,1015.96
2023-04-09T11:06:06.372Z,1016.01
2023-04-09T11:07:06.347Z,1016.00
2023-04-09T11:08:06.330Z,1015.97
2023-04-09T11:09:06.278Z,1015.93
2023-04-09T11:10:06.253Z,1015.93
2023-04-09T11:11:06.218Z,1015.97
2023-04-09T11:12:06.194Z,1015.95
2023-04-09T11:13:06.154Z,1015.95
2023-04-09T11:14:06.140Z,1015.87
2023-04-09T11:15:06.088Z,1015.85
2023-04-09T11:16:06.123Z,1015.88
2023-04-09T11:17:06.077Z,1015.85
2023-04-09T11:18:06.041Z,1015.79
2023-04-09T11:19:05.966Z,1015.83
2023-04-09T11:20:05.944Z,1015.82
2023-04-09T11:21:05.932Z,1015.82
2023-04-09T11:22:05.871Z,1015.78
2023-04-09T11:23:05.859Z,1015.76
2023-04-09T11:24:05.817Z,1015.79
2023-04-09T11:25:05.779Z,1015.75
2023-04-09T11:26:05.747Z,1015.75
2023-04-09T11:27:05.724Z,1015.69
2023-04-09T11:28:05.695Z,1015.67
2023-04-09T11:29:05.655Z,1015.58
2023-04-09T11:30:05.626Z,1015.72
2023-04-09T11:31:05.621Z,1015.68
2023-04-09T11:32:05.577Z,1015.68
2023-04-09T11:33:05.553Z,1015.67
2023-04-09T11:34:05.502Z,1015.71
2023-04-09T11:35:05.478Z,1015.74
2023-04-09T11:36:05.632Z,1015.76
2023-04-09T11:37:05.428Z,1015.68
2023-04-09T11:38:05.386Z,1015.68
2023-04-09T11:39:05.358Z,1015.67
2023-04-09T11:40:05.403Z,1015.67
2023-04-09T11:41:05.307Z,1015.63
2023-04-09T11:42:05.273Z,1015.68
2023-04-09T11:43:05.237Z,1015.64
2023-04-09T11:44:05.210Z,1015.59
2023-04-09T11:45:05.176Z,1015.60
2023-04-09T11:46:05.252Z,1015.63
2023-04-09T11:47:05.200Z,1015.65
2023-04-09T11:48:05.146Z,1015.61
2023-04-09T11:49:05.066Z,1015.63
2023-04-09T11:50:05.045Z,1015.63
2023-04-09T11:51:05.018Z,1015.66
2023-04-09T11:52:04.972Z,1015.65
2023-04-09T11:53:04.950Z,1015.65
2023-04-09T11:54:04.922Z,1015.65
2023-04-09T11:55:04.902Z,1015.64
2023-04-09T11:56:04.866Z,1015.59
2023-04-09T11:57:04.865Z,1015.64
2023-04-09T11:58:04.812Z,1015.67
2023-04-09T11:59:04.781Z,1015.66
2023-04-09T12:00:05.455Z,1015.57
2023-04-09T12:01:04.726Z,1015.57
2023-04-09T12:02:04.753Z,1015.55
2023-04-09T12:03:05.153Z,1015.61
2023-04-09T12:04:04.773Z,1015.65
2023-04-09T12:05:04.721Z,1015.66
2023-04-09T12:06:04.607Z,1015.66